createdAt,value
2023-07-29T00:01:59.069Z,92.20
2023-07-29T00:04:25.969Z,92.20
2023-07-29T00:06:52.924Z,92.20
2023-07-29T00:09:19.884Z,92.20
2023-07-29T00:11:46.717Z,92.20
2023-07-29T00:14:13.805Z,92.20
2023-07-29T00:16:41.030Z,92.20
2023-07-29T00:19:08.124Z,92.20
2023-07-29T00:21:35.446Z,92.20
2023-07-29T00:24:02.440Z,92.20
2023-07-29T00:26:32.359Z,92.20
2023-07-29T00:28:59.735Z,92.20
2023-07-29T00:31:26.857Z,92.20
2023-07-29T00:33:54.036Z,92.20
2023-07-29T00:36:21.549Z,92.20
2023-07-29T00:38:48.614Z,92.20
2023-07-29T00:41:16.477Z,92.20
2023-07-29T00:43:43.567Z,92.20
2023-07-29T00:46:11.529Z,92.20
2023-07-29T00:48:39.131Z,92.20
2023-07-29T00:51:07.248Z,92.20
2023-07-29T00:53:34.431Z,92.20
2023-07-29T00:56:01.874Z,92.20
2023-07-29T00:58:28.827Z,92.20
2023-07-29T01:00:57.304Z,92.20
2023-07-29T01:03:24.469Z,92.20
2023-07-29T01:06:23.202Z,92.20
2023-07-29T01:08:52.767Z,92.20
2023-07-29T01:11:39.672Z,92.20
2023-07-29T01:14:30.226Z,92.20
2023-07-29T01:17:03.329Z,92.20
2023-07-29T01:20:02.658Z,92.20
2023-07-29T01:22:30.816Z,92.20
2023-07-29T01:24:59.175Z,92.20
2023-07-29T01:27:26.367Z,92.20
2023-07-29T01:29:54.257Z,92.20
2023-07-29T01:32:30.018Z,92.20
2023-07-29T01:35:23.037Z,92.20
2023-07-29T01:37:54.712Z,92.20
2023-07-29T01:40:25.020Z,92.20
2023-07-29T01:42:52.563Z,92.20
2023-07-29T01:45:19.733Z,92.20
2023-07-29T01:47:46.738Z,92.20
2023-07-29T01:50:13.694Z,92.20
2023-07-29T01:52:40.558Z,92.20
2023-07-29T01:55:07.830Z,92.20
2023-07-29T01:57:34.796Z,92.20
2023-07-29T02:00:01.733Z,92.20
2023-07-29T02:02:28.652Z,92.20
2023-07-29T02:04:56.964Z,92.20
2023-07-29T02:07:24.022Z,92.20
2023-07-29T02:09:51.030Z,92.20
2023-07-29T02:12:17.904Z,92.20
2023-07-29T02:14:44.734Z,92.20
2023-07-29T02:17:11.786Z,92.20
2023-07-29T02:19:38.895Z,92.20
2023-07-29T02:22:05.917Z,92.20
2023-07-29T02:24:32.915Z,92.20
2023-07-29T02:26:59.800Z,92.20
2023-07-29T02:29:26.723Z,92.20
2023-07-29T02:31:53.889Z,92.20
2023-07-29T02:34:20.745Z,92.20
2023-07-29T02:36:47.813Z,92.20
2023-07-29T02:39:14.837Z,92.20
2023-07-29T02:41:41.836Z,92.20
2023-07-29T02:44:08.792Z,92.20
2023-07-29T02:46:36.169Z,92.20
2023-07-29T02:49:05.616Z,92.20
2023-07-29T02:51:32.572Z,92.20
2023-07-29T02:53:59.543Z,92.20
2023-07-29T02:56:26.397Z,92.20
2023-07-29T02:58:53.370Z,92.20
2023-07-29T03:01:20.547Z,92.20
2023-07-29T03:03:47.540Z,92.20
2023-07-29T03:06:15.504Z,92.20
2023-07-29T03:08:42.354Z,92.20
2023-07-29T03:11:14.060Z,92.20
2023-07-29T03:13:41.108Z,92.20
2023-07-29T03:16:26.229Z,92.20
2023-07-29T03:18:53.348Z,92.20
2023-07-29T03:21:20.568Z,92.20
2023-07-29T03:23:47.645Z,92.20
2023-07-29T03:26:14.516Z,92.20
2023-07-29T03:28:43.694Z,92.20
2023-07-29T03:31:11.959Z,92.20
2023-07-29T03:33:38.967Z,92.20
2023-07-29T03:36:06.335Z,92.20
2023-07-29T03:38:36.376Z,92.20
2023-07-29T03:41:04.163Z,92.20
2023-07-29T03:43:31.513Z,92.20
2023-07-29T03:45:58.669Z,92.20
2023-07-29T03:48:25.568Z,92.20
2023-07-29T03:50:52.637Z,92.20
2023-07-29T03:53:19.440Z,92.20
2023-07-29T03:55:46.293Z,92.20
2023-07-29T03:58:13.734Z,92.20
2023-07-29T04:00:40.829Z,92.20
2023-07-29T04:03:07.689Z,92.20
2023-07-29T04:05:34.718Z,92.20
2023-07-29T04:08:01.649Z,92.20
2023-07-29T04:10:28.566Z,92.20
2023-07-29T04:12:55.533Z,92.20
2023-07-29T04:15:22.384Z,92.20
2023-07-29T04:17:49.237Z,92.20
2023-07-29T04:20:16.251Z,92.20
2023-07-29T04:22:43.329Z,92.20
2023-07-29T04:25:10.822Z,92.20
2023-07-29T04:27:37.689Z,92.20
2023-07-29T04:30:05.076Z,92.20
2023-07-29T04:32:32.079Z,92.20
2023-07-29T04:34:59.042Z,92.20
2023-07-29T04:37:25.853Z,92.20
2023-07-29T04:39:52.656Z,92.20
2023-07-29T04:42:19.466Z,92.20
2023-07-29T04:44:46.393Z,92.20
2023-07-29T04:47:14.839Z,92.20
2023-07-29T04:49:41.663Z,92.20
2023-07-29T04:52:08.798Z,92.20
2023-07-29T04:54:35.728Z,92.20
2023-07-29T04:57:02.554Z,92.20
2023-07-29T04:59:29.690Z,92.20
2023-07-29T05:01:56.535Z,92.20
2023-07-29T05:04:24.548Z,92.20
2023-07-29T05:06:51.797Z,92.20
2023-07-29T05:09:21.152Z,92.20
2023-07-29T05:11:48.679Z,92.20
2023-07-29T05:14:16.437Z,92.20
2023-07-29T05:16:43.510Z,92.20
2023-07-29T05:19:11.101Z,92.20
2023-07-29T05:21:39.205Z,92.20
2023-07-29T05:24:06.185Z,92.20
2023-07-29T05:26:33.150Z,92.20
2023-07-29T05:29:00.050Z,92.20
2023-07-29T05:31:27.153Z,92.20
2023-07-29T05:33:54.080Z,92.20
2023-07-29T05:36:21.217Z,92.20
2023-07-29T05:38:48.025Z,92.20
2023-07-29T05:41:15.074Z,92.20
2023-07-29T05:43:44.385Z,92.20
2023-07-29T05:46:11.646Z,92.20
2023-07-29T05:48:38.527Z,92.20
2023-07-29T05:51:06.704Z,92.20
2023-07-29T05:53:33.672Z,92.20
2023-07-29T05:56:00.714Z,92.20
2023-07-29T05:58:27.813Z,92.20
2023-07-29T06:00:54.867Z,92.20
2023-07-29T06:03:21.837Z,92.20
2023-07-29T06:05:51.796Z,92.20
2023-07-29T06:08:20.600Z,92.20
2023-07-29T06:10:47.495Z,92.20
2023-07-29T06:13:14.437Z,92.20
2023-07-29T06:15:41.406Z,92.20
2023-07-29T06:18:08.307Z,92.20
2023-07-29T06:20:35.395Z,92.20
2023-07-29T06:23:03.266Z,92.20
2023-07-29T06:25:32.465Z,92.20
2023-07-29T06:27:59.759Z,92.20
2023-07-29T06:30:26.796Z,92.20
2023-07-29T06:32:54.797Z,92.20
2023-07-29T06:35:21.738Z,92.20
2023-07-29T06:37:48.613Z,92.20
2023-07-29T06:40:15.542Z,92.20
2023-07-29T06:42:42.513Z,92.20
2023-07-29T06:45:09.969Z,92.20
2023-07-29T06:47:36.856Z,92.20
2023-07-29T06:50:03.896Z,92.20
2023-07-29T06:52:30.784Z,92.20
2023-07-29T06:54:57.658Z,92.20
2023-07-29T06:57:24.666Z,92.10
2023-07-29T06:59:51.524Z,92.20
2023-07-29T07:02:18.432Z,92.20
2023-07-29T07:04:45.431Z,90.60
2023-07-29T07:07:12.368Z,90.80
2023-07-29T07:09:39.362Z,90.20
2023-07-29T07:12:09.586Z,88.40
2023-07-29T07:14:36.559Z,87.40
2023-07-29T07:17:03.470Z,88.70
2023-07-29T07:19:30.370Z,90.00
2023-07-29T07:22:00.321Z,88.80
2023-07-29T07:24:27.198Z,87.60
2023-07-29T07:26:54.107Z,88.00
2023-07-29T07:29:20.946Z,87.40
2023-07-29T07:31:55.405Z,88.10
2023-07-29T07:34:22.783Z,88.40
2023-07-29T07:36:50.245Z,89.20
2023-07-29T07:39:17.427Z,87.60
2023-07-29T07:41:47.291Z,87.10
2023-07-29T07:44:16.688Z,86.90
2023-07-29T07:46:43.859Z,88.20
2023-07-29T07:49:14.410Z,86.40
2023-07-29T07:51:41.484Z,86.10
2023-07-29T07:54:08.594Z,85.60
2023-07-29T07:56:38.257Z,84.60
2023-07-29T07:59:05.414Z,85.20
2023-07-29T08:01:37.859Z,84.60
2023-07-29T08:04:05.103Z,84.20
2023-07-29T08:06:33.129Z,83.20
2023-07-29T08:09:00.605Z,82.90
2023-07-29T08:11:31.049Z,84.50
2023-07-29T08:13:57.949Z,84.10
2023-07-29T08:16:24.964Z,84.30
2023-07-29T08:18:51.832Z,81.20
2023-07-29T08:21:18.823Z,82.60
2023-07-29T08:23:45.680Z,82.30
2023-07-29T08:26:12.551Z,83.20
2023-07-29T08:28:40.626Z,82.30
2023-07-29T08:31:08.248Z,82.90
2023-07-29T08:33:35.973Z,82.30
2023-07-29T08:36:03.944Z,80.40
2023-07-29T08:38:30.889Z,81.50
2023-07-29T08:41:20.225Z,80.30
2023-07-29T08:44:25.632Z,81.40
2023-07-29T08:46:54.213Z,80.00
2023-07-29T08:49:24.154Z,80.60
2023-07-29T08:51:54.342Z,80.20
2023-07-29T08:54:21.404Z,80.30
2023-07-29T08:56:48.485Z,79.40
2023-07-29T08:59:17.468Z,76.70
2023-07-29T09:01:44.806Z,78.00
2023-07-29T09:04:11.897Z,77.70
2023-07-29T09:06:40.696Z,77.60
2023-07-29T09:09:10.112Z,77.60
2023-07-29T09:11:37.202Z,76.70
2023-07-29T09:14:04.061Z,77.00
2023-07-29T09:16:31.365Z,76.60
2023-07-29T09:19:03.166Z,77.30
2023-07-29T09:21:30.532Z,76.60
2023-07-29T09:23:57.747Z,78.10
2023-07-29T09:26:29.163Z,77.90
2023-07-29T09:28:57.648Z,75.90
2023-07-29T09:31:26.779Z,76.00
2023-07-29T09:34:05.233Z,74.90
2023-07-29T09:36:33.429Z,75.60
2023-07-29T09:39:00.947Z,76.40
2023-07-29T09:41:30.047Z,76.20
2023-07-29T09:43:59.019Z,76.60
2023-07-29T09:46:32.749Z,74.40
2023-07-29T09:49:00.174Z,74.00
2023-07-29T09:51:27.099Z,76.00
2023-07-29T09:53:54.160Z,77.00
2023-07-29T09:56:27.136Z,76.50
2023-07-29T09:58:56.525Z,77.30
2023-07-29T10:01:24.205Z,78.20
2023-07-29T10:03:51.638Z,77.70
2023-07-29T10:06:19.417Z,77.00
2023-07-29T10:08:46.809Z,78.00
2023-07-29T10:11:14.132Z,77.50
2023-07-29T10:13:41.086Z,78.90
2023-07-29T10:16:08.401Z,77.00
2023-07-29T10:18:35.778Z,76.30
2023-07-29T10:21:04.125Z,73.90
2023-07-29T10:23:43.424Z,73.40
2023-07-29T10:26:12.857Z,73.60
2023-07-29T10:28:47.893Z,74.90
2023-07-29T10:31:17.854Z,73.50
2023-07-29T10:33:45.702Z,73.80
2023-07-29T10:36:13.259Z,73.20
2023-07-29T10:38:41.283Z,73.70
2023-07-29T10:41:08.226Z,73.20
2023-07-29T10:43:38.841Z,74.30
2023-07-29T10:46:23.007Z,75.70
2023-07-29T10:48:55.571Z,76.70
2023-07-29T10:51:34.049Z,77.30
2023-07-29T10:54:12.750Z,75.70
2023-07-29T10:56:51.642Z,75.20
2023-07-29T10:59:32.028Z,73.00
2023-07-29T11:02:00.590Z,74.20
2023-07-29T11:04:28.745Z,74.80
2023-07-29T11:07:19.160Z,75.70
2023-07-29T11:09:56.738Z,75.70
2023-07-29T11:12:47.481Z,77.20
2023-07-29T11:15:18.757Z,77.80
2023-07-29T11:17:57.289Z,76.10
2023-07-29T11:20:26.774Z,77.50
2023-07-29T11:22:58.386Z,76.80
2023-07-29T11:25:26.493Z,77.90
2023-07-29T11:27:55.767Z,77.20
2023-07-29T11:30:30.611Z,77.60
2023-07-29T11:32:59.214Z,76.10
2023-07-29T11:35:27.098Z,75.70
2023-07-29T11:37:56.065Z,76.50
2023-07-29T11:40:24.146Z,75.60
2023-07-29T11:42:52.855Z,74.10
2023-07-29T11:45:21.388Z,74.50
2023-07-29T11:47:49.084Z,75.50
2023-07-29T11:50:16.746Z,75.00
2023-07-29T11:52:47.929Z,75.40
2023-07-29T11:55:16.662Z,74.10
2023-07-29T11:57:45.023Z,74.90
2023-07-29T12:00:14.001Z,73.30
2023-07-29T12:02:45.866Z,74.30
2023-07-29T12:05:14.811Z,72.20
2023-07-29T12:07:43.632Z,72.60
2023-07-29T12:10:12.343Z,73.10
2023-07-29T12:12:46.764Z,73.70
2023-07-29T12:15:13.842Z,73.30
2023-07-29T12:17:44.063Z,74.70
2023-07-29T12:20:12.142Z,74.80
2023-07-29T12:22:39.346Z,74.70
2023-07-29T12:25:07.505Z,75.90
2023-07-29T12:27:34.376Z,76.00
2023-07-29T12:30:05.092Z,75.30
2023-07-29T12:32:32.385Z,75.10
2023-07-29T12:34:59.367Z,74.60
2023-07-29T12:37:34.199Z,74.90
2023-07-29T12:40:01.233Z,74.40
2023-07-29T12:42:28.150Z,76.10
2023-07-29T12:44:55.219Z,74.60
2023-07-29T12:47:22.132Z,74.40
2023-07-29T12:49:49.180Z,74.80
2023-07-29T12:52:16.284Z,74.70
2023-07-29T12:54:45.524Z,75.00
2023-07-29T12:57:12.619Z,76.40
2023-07-29T12:59:39.628Z,76.70
2023-07-29T13:02:08.125Z,76.50
2023-07-29T13:04:35.315Z,78.00
2023-07-29T13:07:02.318Z,77.70
2023-07-29T13:09:29.217Z,77.60
2023-07-29T13:11:56.045Z,78.20
2023-07-29T13:14:23.280Z,78.30
2023-07-29T13:16:50.266Z,77.90
2023-07-29T13:19:17.096Z,75.90
2023-07-29T13:21:44.000Z,77.60
2023-07-29T13:24:11.391Z,78.00
2023-07-29T13:26:38.873Z,77.20
2023-07-29T13:29:08.783Z,77.50
2023-07-29T13:31:36.837Z,77.60
2023-07-29T13:34:03.760Z,77.00
2023-07-29T13:36:30.569Z,75.60
2023-07-29T13:38:57.448Z,75.40
2023-07-29T13:41:24.975Z,76.00
2023-07-29T13:43:51.791Z,76.50
2023-07-29T13:46:22.321Z,77.00
2023-07-29T13:48:49.245Z,77.60
2023-07-29T13:51:16.335Z,76.50
2023-07-29T13:53:43.445Z,74.90
2023-07-29T13:56:10.277Z,74.90
2023-07-29T13:58:37.798Z,75.80
2023-07-29T14:01:04.987Z,76.50
2023-07-29T14:03:31.856Z,75.90
2023-07-29T14:05:58.755Z,76.60
2023-07-29T14:08:26.019Z,76.70
2023-07-29T14:10:52.932Z,76.20
2023-07-29T14:13:19.771Z,75.30
2023-07-29T14:15:46.637Z,75.10
2023-07-29T14:18:13.661Z,74.40
2023-07-29T14:20:40.816Z,75.30
2023-07-29T14:23:08.825Z,74.80
2023-07-29T14:25:35.762Z,74.30
2023-07-29T14:28:02.588Z,73.40
2023-07-29T14:30:29.555Z,74.50
2023-07-29T14:32:56.418Z,74.90
2023-07-29T14:35:23.278Z,75.40
2023-07-29T14:37:50.084Z,75.80
2023-07-29T14:40:16.926Z,75.70
2023-07-29T14:42:43.905Z,74.50
2023-07-29T14:45:11.584Z,75.60
2023-07-29T14:47:38.412Z,76.00
2023-07-29T14:50:05.758Z,74.30
2023-07-29T14:52:32.794Z,75.30
2023-07-29T14:54:59.717Z,76.20
2023-07-29T14:57:26.549Z,75.50
2023-07-29T14:59:53.375Z,75.10
2023-07-29T15:02:20.577Z,75.30
2023-07-29T15:04:47.373Z,75.70
2023-07-29T15:07:14.189Z,76.10
2023-07-29T15:09:41.143Z,76.30
2023-07-29T15:12:08.721Z,76.90
2023-07-29T15:14:35.596Z,77.60
2023-07-29T15:17:02.476Z,77.80
2023-07-29T15:19:29.489Z,77.80
2023-07-29T15:21:56.517Z,78.30
2023-07-29T15:24:23.625Z,77.80
2023-07-29T15:26:50.518Z,77.30
2023-07-29T15:29:17.749Z,77.70
2023-07-29T15:31:44.590Z,77.90
2023-07-29T15:34:11.557Z,77.90
2023-07-29T15:36:38.808Z,77.60
2023-07-29T15:39:05.917Z,78.40
2023-07-29T15:41:36.015Z,78.90
2023-07-29T15:44:02.913Z,79.00
2023-07-29T15:46:29.881Z,78.50
2023-07-29T15:49:00.536Z,80.90
2023-07-29T15:51:28.257Z,83.00
2023-07-29T15:53:55.399Z,87.00
2023-07-29T15:56:22.276Z,91.00
2023-07-29T15:58:49.189Z,92.20
2023-07-29T16:01:16.175Z,92.20
2023-07-29T16:03:43.192Z,92.20
2023-07-29T16:06:10.251Z,92.20
2023-07-29T16:08:37.117Z,92.20
2023-07-29T16:11:04.004Z,92.20
2023-07-29T16:13:30.908Z,92.20
2023-07-29T16:15:59.445Z,92.20
2023-07-29T16:18:26.591Z,92.20
2023-07-29T16:20:54.320Z,92.20
2023-07-29T16:23:21.224Z,92.20
2023-07-29T16:25:48.165Z,92.20
2023-07-29T16:28:15.015Z,92.20
2023-07-29T16:30:42.512Z,92.20
2023-07-29T16:33:09.447Z,92.20
2023-07-29T16:35:36.828Z,92.20
2023-07-29T16:38:03.996Z,92.20
2023-07-29T16:40:31.101Z,92.20
2023-07-29T16:42:58.070Z,92.20
2023-07-29T16:45:26.617Z,92.20
2023-07-29T16:47:53.447Z,92.20
2023-07-29T16:50:20.699Z,92.20
2023-07-29T16:52:50.063Z,92.20
2023-07-29T16:55:16.905Z,92.20
2023-07-29T16:57:43.738Z,92.20
2023-07-29T17:00:11.329Z,92.20
2023-07-29T17:02:38.282Z,92.20
2023-07-29T17:05:07.650Z,92.20
2023-07-29T17:07:34.807Z,92.20
2023-07-29T17:10:02.412Z,92.20
2023-07-29T17:12:29.738Z,92.20
2023-07-29T17:14:56.550Z,92.20
2023-07-29T17:17:23.560Z,92.20
2023-07-29T17:19:50.446Z,92.20
2023-07-29T17:22:17.313Z,92.20
2023-07-29T17:24:44.150Z,92.20
2023-07-29T17:27:13.508Z,92.20
2023-07-29T17:29:43.058Z,92.20
2023-07-29T17:32:09.917Z,92.20
2023-07-29T17:34:36.840Z,92.20
2023-07-29T17:37:03.851Z,92.20
2023-07-29T17:39:30.908Z,92.20
2023-07-29T17:41:57.780Z,92.20
2023-07-29T17:44:24.766Z,92.20
2023-07-29T17:46:51.780Z,92.20
2023-07-29T17:49:18.711Z,92.20
2023-07-29T17:51:45.564Z,92.20
2023-07-29T17:54:12.496Z,92.20
2023-07-29T17:56:40.224Z,92.20
2023-07-29T17:59:07.514Z,92.20
2023-07-29T18:01:34.599Z,92.20
2023-07-29T18:04:01.511Z,92.20
2023-07-29T18:06:28.614Z,92.20
2023-07-29T18:08:55.508Z,92.20
2023-07-29T18:11:22.772Z,92.20
2023-07-29T18:13:49.819Z,92.20
2023-07-29T18:16:20.908Z,92.20
2023-07-29T18:18:51.050Z,92.20
2023-07-29T18:21:18.022Z,92.20
2023-07-29T18:23:44.967Z,92.20
2023-07-29T18:26:11.980Z,92.20
2023-07-29T18:28:38.990Z,92.20
2023-07-29T18:31:06.514Z,92.20
2023-07-29T18:33:33.458Z,92.20
2023-07-29T18:36:02.180Z,92.20
2023-07-29T18:38:29.139Z,92.20
2023-07-29T18:40:56.106Z,92.20
2023-07-29T18:43:23.021Z,92.20
2023-07-29T18:45:50.180Z,92.20
2023-07-29T18:48:17.723Z,92.20
2023-07-29T18:50:45.257Z,92.20
2023-07-29T18:53:12.466Z,92.20
2023-07-29T18:55:41.078Z,92.20
2023-07-29T18:58:08.197Z,92.20
2023-07-29T19:00:35.720Z,92.20
2023-07-29T19:03:02.700Z,92.20
2023-07-29T19:05:29.574Z,92.20
2023-07-29T19:07:58.676Z,92.20
2023-07-29T19:10:25.549Z,92.20
2023-07-29T19:12:57.057Z,92.20
2023-07-29T19:15:24.300Z,92.20
2023-07-29T19:17:51.900Z,92.20
2023-07-29T19:20:18.900Z,92.20
2023-07-29T19:22:48.544Z,92.20
2023-07-29T19:25:15.636Z,92.20
2023-07-29T19:27:43.276Z,92.20
2023-07-29T19:30:10.404Z,92.20
2023-07-29T19:32:37.439Z,92.20
2023-07-29T19:35:07.726Z,92.20
2023-07-29T19:37:34.585Z,92.20
2023-07-29T19:40:01.752Z,92.20
2023-07-29T19:42:29.077Z,92.20
2023-07-29T19:44:55.932Z,92.20
2023-07-29T19:47:22.892Z,92.20
2023-07-29T19:49:52.805Z,92.20
2023-07-29T19:52:20.982Z,92.20
2023-07-29T19:54:48.727Z,92.20
2023-07-29T19:57:16.238Z,92.20
2023-07-29T19:59:49.279Z,92.20
2023-07-29T20:02:20.278Z,92.20
2023-07-29T20:04:51.062Z,92.20
2023-07-29T20:07:21.406Z,92.20
2023-07-29T20:09:48.526Z,92.20
2023-07-29T20:12:16.084Z,92.20
2023-07-29T20:14:43.051Z,92.20
2023-07-29T20:17:10.097Z,92.20
2023-07-29T20:19:37.091Z,92.20
2023-07-29T20:22:04.223Z,92.20
2023-07-29T20:24:31.046Z,92.20
2023-07-29T20:26:57.909Z,92.20
2023-07-29T20:29:27.736Z,92.20
2023-07-29T20:31:54.740Z,92.20
2023-07-29T20:34:21.724Z,92.20
2023-07-29T20:36:48.634Z,92.20
2023-07-29T20:39:16.187Z,92.20
2023-07-29T20:41:43.404Z,92.20
2023-07-29T20:44:11.810Z,92.20
2023-07-29T20:46:39.106Z,92.20
2023-07-29T20:49:05.974Z,92.20
2023-07-29T20:51:33.096Z,92.20
2023-07-29T20:53:59.944Z,92.20
2023-07-29T20:56:26.846Z,92.20
2023-07-29T20:58:53.758Z,92.20
2023-07-29T21:01:20.584Z,92.20
2023-07-29T21:03:47.665Z,92.20
2023-07-29T21:06:14.680Z,92.20
2023-07-29T21:08:41.534Z,92.20
2023-07-29T21:11:08.455Z,92.20
2023-07-29T21:13:35.521Z,92.20
2023-07-29T21:16:02.409Z,92.20
2023-07-29T21:18:29.910Z,92.20
2023-07-29T21:20:57.094Z,92.20
2023-07-29T21:23:24.039Z,92.20
2023-07-29T21:25:52.628Z,92.20
2023-07-29T21:28:20.924Z,92.20
2023-07-29T21:30:49.204Z,92.20
2023-07-29T21:33:16.139Z,92.20
2023-07-29T21:35:43.043Z,92.20
2023-07-29T21:38:27.499Z,92.20
2023-07-29T21:40:56.646Z,92.20
2023-07-29T21:43:23.717Z,92.20
2023-07-29T21:45:50.883Z,92.20
2023-07-29T21:48:17.962Z,92.20
2023-07-29T21:50:44.943Z,92.20
2023-07-29T21:53:11.828Z,92.20
2023-07-29T21:55:42.413Z,92.20
2023-07-29T21:58:09.548Z,92.20
2023-07-29T22:00:37.436Z,92.20
2023-07-29T22:03:04.856Z,92.20
2023-07-29T22:05:32.592Z,92.20
2023-07-29T22:08:01.601Z,92.20
2023-07-29T22:10:30.280Z,92.20
2023-07-29T22:12:57.288Z,92.20
2023-07-29T22:15:24.129Z,92.20
2023-07-29T22:17:50.976Z,92.20
2023-07-29T22:20:18.740Z,92.20
2023-07-29T22:22:45.533Z,92.20
2023-07-29T22:25:13.013Z,92.20
2023-07-29T22:27:39.824Z,92.20
2023-07-29T22:30:07.210Z,92.20
2023-07-29T22:32:34.282Z,92.20
2023-07-29T22:35:01.224Z,92.20
2023-07-29T22:37:28.155Z,92.20
2023-07-29T22:39:55.014Z,92.20
2023-07-29T22:42:21.917Z,92.20
2023-07-29T22:44:49.284Z,92.20
2023-07-29T22:47:16.235Z,92.20
2023-07-29T22:49:46.617Z,92.20
2023-07-29T22:52:13.500Z,92.20
2023-07-29T22:54:40.421Z,92.20
2023-07-29T22:57:07.623Z,92.20
2023-07-29T22:59:35.218Z,92.20
2023-07-29T23:02:02.221Z,92.20
2023-07-29T23:04:29.206Z,92.20
2023-07-29T23:06:56.227Z,92.20
2023-07-29T23:09:23.223Z,92.20
2023-07-29T23:11:51.262Z,92.20
2023-07-29T23:14:18.145Z,92.20
2023-07-29T23:16:45.557Z,92.20
2023-07-29T23:19:12.378Z,92.20
2023-07-29T23:21:39.575Z,92.20
2023-07-29T23:24:06.703Z,92.20
2023-07-29T23:26:33.560Z,92.20
2023-07-29T23:29:00.372Z,92.20
2023-07-29T23:31:27.272Z,92.20
2023-07-29T23:33:54.142Z,92.20
2023-07-29T23:36:21.102Z,92.20
2023-07-29T23:38:48.021Z,92.20
2023-07-29T23:41:15.127Z,92.20
2023-07-29T23:43:41.972Z,92.20
2023-07-29T23:46:09.004Z,92.20
2023-07-29T23:48:36.052Z,92.20
2023-07-29T23:51:02.930Z,92.20
2023-07-29T23:53:29.990Z,92.20
2023-07-29T23:55:56.864Z,92.20
2023-07-29T23:58:23.681Z,92.20
